createdAt,value
2019-01-09T09:14:37.130Z,23.24
2019-01-09T09:17:05.376Z,22.72
2019-01-09T09:19:33.641Z,22.70
2019-01-09T09:22:01.927Z,22.73
2019-01-09T09:24:30.205Z,22.50
2019-01-09T09:26:58.456Z,22.54
2019-01-09T09:29:26.722Z,22.64
2019-01-09T09:31:54.967Z,22.72
2019-01-09T09:34:23.236Z,22.76
2019-01-09T09:36:51.485Z,22.75
2019-01-09T09:39:19.755Z,22.72
2019-01-09T09:41:48.004Z,22.78
2019-01-09T09:44:16.270Z,22.78
2019-01-09T09:46:44.512Z,22.76
2019-01-09T09:49:12.778Z,22.80
2019-01-09T09:51:41.023Z,22.80
2019-01-09T09:54:09.299Z,22.82
2019-01-09T09:56:37.547Z,22.83
2019-01-09T09:59:05.815Z,22.87
2019-01-09T10:01:37.309Z,22.87
2019-01-09T10:04:05.581Z,22.88
2019-01-09T10:06:33.830Z,22.86
2019-01-09T10:09:02.079Z,22.87
2019-01-09T10:11:30.344Z,22.89
2019-01-09T10:13:58.592Z,22.90
2019-01-09T10:16:26.860Z,22.90
2019-01-09T10:18:55.102Z,22.92
2019-01-09T10:21:23.371Z,22.90
2019-01-09T10:23:51.614Z,22.85
2019-01-09T10:26:19.883Z,22.84
2019-01-09T10:28:48.128Z,22.86
2019-01-09T10:31:16.399Z,22.84
2019-01-09T10:33:44.645Z,22.82
2019-01-09T10:36:12.955Z,22.83
2019-01-09T10:38:41.194Z,22.82
2019-01-09T10:41:09.471Z,22.81
2019-01-09T10:43:37.711Z,22.81
2019-01-09T10:46:05.976Z,22.80
2019-01-09T10:48:34.222Z,22.81
2019-01-09T10:51:04.884Z,22.80
2019-01-09T10:53:33.209Z,22.80
2019-01-09T10:56:01.962Z,22.81
2019-01-09T10:58:30.279Z,22.82
2019-01-09T11:00:58.545Z,22.80
2019-01-09T11:03:26.793Z,22.81
2019-01-09T11:05:55.061Z,22.81
2019-01-09T11:08:23.343Z,22.81
2019-01-09T11:10:51.611Z,22.82
2019-01-09T11:13:19.858Z,22.82
2019-01-09T11:15:48.129Z,22.82
2019-01-09T11:18:16.370Z,22.81
2019-01-09T11:20:44.641Z,22.79
2019-01-09T11:23:12.920Z,22.77
2019-01-09T11:25:41.159Z,22.75
2019-01-09T11:28:09.403Z,22.74
2019-01-09T11:30:37.670Z,22.74
2019-01-09T11:33:05.916Z,22.72
2019-01-09T11:35:34.179Z,22.75
2019-01-09T11:38:02.424Z,22.75
2019-01-09T11:40:30.692Z,22.77
2019-01-09T11:42:58.934Z,22.78
2019-01-09T11:45:27.208Z,22.79
2019-01-09T11:47:55.451Z,22.82
2019-01-09T11:50:23.727Z,22.83
2019-01-09T11:52:51.971Z,22.86
2019-01-09T11:55:20.236Z,22.86
2019-01-09T11:57:48.482Z,22.87
2019-01-09T12:00:20.014Z,22.90
2019-01-09T12:02:48.257Z,22.90
2019-01-09T12:05:16.524Z,22.90
2019-01-09T12:07:44.774Z,22.91
2019-01-09T12:10:29.825Z,22.91
2019-01-09T12:12:51.746Z,22.92
2019-01-09T12:15:20.020Z,22.93
2019-01-09T12:17:48.259Z,22.92
2019-01-09T12:20:18.364Z,22.93
2019-01-09T12:22:46.607Z,22.93
2019-01-09T12:25:14.877Z,22.92
2019-01-09T12:27:43.121Z,22.92
2019-01-09T12:30:22.980Z,22.92
2019-01-09T12:32:51.227Z,22.92
2019-01-09T12:35:19.471Z,22.91
2019-01-09T12:37:47.738Z,22.89
2019-01-09T12:40:15.984Z,22.89
2019-01-09T12:42:44.255Z,22.88
2019-01-09T12:45:17.112Z,22.87
2019-01-09T12:47:45.379Z,22.85
2019-01-09T12:50:19.491Z,22.85
2019-01-09T12:52:47.762Z,22.86
2019-01-09T12:55:16.007Z,22.86
2019-01-09T12:57:44.482Z,22.86
2019-01-09T13:00:22.081Z,22.86
2019-01-09T13:02:50.347Z,22.84
2019-01-09T13:05:18.674Z,22.85
2019-01-09T13:07:46.943Z,22.82
2019-01-09T13:10:15.191Z,22.82
2019-01-09T13:12:43.459Z,22.82
2019-01-09T13:15:11.879Z,22.83
2019-01-09T13:17:40.147Z,22.80
2019-01-09T13:20:13.530Z,22.80
2019-01-09T13:22:41.791Z,22.79
2019-01-09T13:25:11.469Z,22.79
2019-01-09T13:27:39.734Z,22.80
2019-01-09T13:30:13.218Z,22.83
2019-01-09T13:32:41.699Z,22.81
2019-01-09T13:35:09.943Z,22.82
2019-01-09T13:37:38.291Z,22.82
2019-01-09T13:40:12.411Z,22.81
2019-01-09T13:42:40.679Z,22.82
2019-01-09T13:45:11.563Z,22.83
2019-01-09T13:47:39.832Z,22.83
2019-01-09T13:50:11.209Z,22.86
2019-01-09T13:52:39.545Z,22.86
2019-01-09T13:55:09.828Z,22.87
2019-01-09T13:57:38.095Z,22.87
2019-01-09T14:00:12.327Z,22.88
2019-01-09T14:02:40.594Z,22.87
2019-01-09T14:05:09.714Z,22.86
2019-01-09T14:07:37.943Z,22.88
2019-01-09T14:10:10.972Z,22.88
2019-01-09T14:12:39.495Z,22.86
2019-01-09T14:15:11.042Z,22.84
2019-01-09T14:17:39.310Z,22.85
2019-01-09T14:20:10.592Z,22.83
2019-01-09T14:22:38.861Z,22.82
2019-01-09T14:25:09.842Z,22.81
2019-01-09T14:27:38.105Z,22.81
2019-01-09T14:30:20.906Z,22.80
2019-01-09T14:32:49.171Z,22.80
2019-01-09T14:35:17.416Z,22.78
2019-01-09T14:37:45.683Z,22.79
2019-01-09T14:40:19.126Z,22.80
2019-01-09T14:42:47.389Z,22.84
2019-01-09T14:45:16.981Z,22.85
2019-01-09T14:47:46.099Z,22.85
2019-01-09T14:50:17.598Z,22.86
2019-01-09T14:52:45.892Z,22.85
2019-01-09T14:55:14.553Z,22.86
2019-01-09T14:57:42.825Z,22.87
2019-01-09T15:00:19.567Z,23.32
2019-01-09T15:02:47.838Z,22.99
2019-01-09T15:05:16.124Z,22.92
2019-01-09T15:07:44.348Z,22.91
2019-01-09T15:10:21.855Z,22.91
2019-01-09T15:12:50.779Z,22.90
2019-01-09T15:15:19.020Z,22.89
2019-01-09T15:17:47.335Z,22.89
2019-01-09T15:20:17.413Z,22.89
2019-01-09T15:22:45.655Z,22.89
2019-01-09T15:25:14.999Z,22.91
2019-01-09T15:27:43.247Z,22.88
2019-01-09T15:30:17.538Z,22.90
2019-01-09T15:32:45.781Z,22.86
2019-01-09T15:35:14.590Z,22.85
2019-01-09T15:37:42.904Z,22.85
2019-01-09T15:40:14.517Z,22.85
2019-01-09T15:42:42.763Z,23.05
2019-01-09T15:45:12.827Z,22.99
2019-01-09T15:47:41.178Z,23.00
2019-01-09T15:50:12.948Z,23.03
2019-01-09T15:52:41.200Z,23.05
2019-01-09T15:55:12.566Z,23.06
2019-01-09T15:57:41.248Z,23.08
2019-01-09T16:00:21.187Z,23.08
2019-01-09T16:02:49.626Z,23.09
2019-01-09T16:05:18.034Z,23.08
2019-01-09T16:07:46.309Z,23.09
2019-01-09T16:10:20.055Z,23.08
2019-01-09T16:12:48.299Z,23.09
2019-01-09T16:15:17.604Z,23.11
2019-01-09T16:17:45.853Z,23.11
2019-01-09T16:20:19.093Z,23.13
2019-01-09T16:22:47.333Z,23.09
2019-01-09T16:25:15.869Z,23.07
2019-01-09T16:27:44.109Z,23.08
2019-01-09T16:30:21.359Z,23.03
2019-01-09T16:32:49.599Z,23.01
2019-01-09T16:35:18.000Z,23.00
2019-01-09T16:37:46.247Z,23.02
2019-01-09T16:40:23.266Z,23.01
2019-01-09T16:42:45.897Z,23.01
2019-01-09T16:45:15.238Z,23.00
2019-01-09T16:47:43.494Z,23.01
2019-01-09T16:50:15.377Z,23.01
2019-01-09T16:52:43.627Z,23.01
2019-01-09T16:55:12.037Z,23.02
2019-01-09T16:57:40.694Z,23.02
2019-01-09T17:00:12.209Z,23.03
2019-01-09T17:02:41.310Z,23.02
2019-01-09T17:05:11.020Z,23.03
2019-01-09T17:07:39.277Z,23.05
2019-01-09T17:10:11.089Z,23.05
2019-01-09T17:12:39.335Z,23.05
2019-01-09T17:16:02.119Z,24.26
2019-01-09T17:18:30.366Z,23.23
2019-01-09T17:20:58.626Z,23.14
2019-01-09T17:23:26.873Z,23.14
2019-01-09T17:25:55.421Z,23.16
2019-01-09T17:28:23.664Z,23.15
2019-01-09T17:30:51.934Z,23.12
2019-01-09T17:33:20.180Z,23.12
2019-01-09T17:35:48.449Z,23.10
2019-01-09T17:38:16.703Z,23.10
2019-01-09T17:40:44.969Z,23.09
2019-01-09T17:43:13.212Z,23.10
2019-01-09T17:45:41.477Z,23.10
2019-01-09T17:48:09.727Z,23.10
2019-01-09T17:50:38.641Z,23.10
2019-01-09T17:53:06.996Z,23.07
2019-01-09T17:55:35.235Z,23.07
2019-01-09T17:58:03.487Z,23.06
2019-01-09T18:00:35.008Z,23.08
2019-01-09T18:03:03.630Z,23.07
2019-01-09T18:05:31.899Z,23.05
2019-01-09T18:08:00.146Z,23.05
2019-01-09T18:10:28.497Z,23.05
2019-01-09T18:12:56.741Z,23.04
2019-01-09T18:15:25.266Z,23.03
2019-01-09T18:17:53.534Z,23.03
2019-01-09T18:20:23.011Z,23.02
2019-01-09T18:22:51.289Z,23.02
2019-01-09T18:25:27.524Z,23.02
2019-01-09T18:27:55.796Z,23.01
2019-01-09T18:30:36.249Z,23.02
2019-01-09T18:33:19.189Z,23.00
2019-01-09T18:36:05.597Z,23.00
2019-01-09T18:38:58.097Z,22.99
2019-01-09T18:41:38.463Z,23.00
2019-01-09T18:44:26.421Z,23.01
2019-01-09T18:47:16.010Z,23.01
2019-01-09T18:50:08.667Z,23.00
2019-01-09T18:52:43.317Z,22.99
2019-01-09T18:55:11.564Z,22.98
2019-01-09T18:57:39.836Z,22.99
2019-01-09T19:00:14.466Z,22.99
2019-01-09T19:02:42.735Z,22.99
2019-01-09T19:05:10.978Z,23.00
2019-01-09T19:07:39.252Z,22.99
2019-01-09T19:10:16.567Z,23.01
2019-01-09T19:12:45.125Z,23.01
2019-01-09T19:15:14.203Z,23.00
2019-01-09T19:17:42.475Z,23.01
2019-01-09T19:20:12.161Z,23.00
2019-01-09T19:22:40.426Z,23.00
2019-01-09T19:25:12.248Z,22.99
2019-01-09T19:27:40.585Z,23.00
2019-01-09T19:30:17.985Z,23.01
2019-01-09T19:32:46.255Z,22.99
2019-01-09T19:35:14.977Z,22.99
2019-01-09T19:37:43.243Z,22.98
2019-01-09T19:40:11.494Z,22.99
2019-01-09T19:42:39.766Z,22.99
2019-01-09T19:45:10.548Z,22.97
2019-01-09T19:47:38.814Z,22.97
2019-01-09T19:50:22.192Z,22.97
2019-01-09T19:52:50.898Z,22.98
2019-01-09T19:55:19.144Z,22.98
2019-01-09T19:57:47.410Z,22.99
2019-01-09T20:00:23.945Z,22.98
2019-01-09T20:02:52.214Z,22.98
2019-01-09T20:05:20.511Z,22.97
2019-01-09T20:07:48.849Z,22.97
2019-01-09T20:10:19.892Z,22.99
2019-01-09T20:12:48.209Z,22.98
2019-01-09T20:15:17.692Z,22.97
2019-01-09T20:17:46.016Z,22.97
2019-01-09T20:20:16.740Z,22.98
2019-01-09T20:22:45.404Z,22.98
